sensor_id;sensor_type;location;lat;lon;timestamp;pressure;altitude;pressure_sealevel;temperature;humidity
55490;BME280;44029;52.956;4.772;2023-03-05T00:01:20;102383.47;;;5.59;100.00
55490;BME280;44029;52.956;4.772;2023-03-05T00:03:50;102383.00;;;5.47;100.00
55490;BME280;44029;52.956;4.772;2023-03-05T00:06:20;102375.56;;;5.41;100.00
55490;BME280;44029;52.956;4.772;2023-03-05T00:08:46;102374.25;;;5.29;100.00
55490;BME280;44029;52.956;4.772;2023-03-05T00:11:12;102378.72;;;5.21;100.00
55490;BME280;44029;52.956;4.772;2023-03-05T00:13:38;102375.38;;;5.11;100.00
55490;BME280;44029;52.956;4.772;2023-03-05T00:16:09;102381.13;;;5.16;100.00
55490;BME280;44029;52.956;4.772;2023-03-05T00:18:35;102366.34;;;5.11;100.00
55490;BME280;44029;52.956;4.772;2023-03-05T00:21:01;102361.50;;;4.98;100.00
55490;BME280;44029;52.956;4.772;2023-03-05T00:23:27;102363.91;;;4.93;100.00
55490;BME280;44029;52.956;4.772;2023-03-05T00:25:52;102366.63;;;4.93;100.00
55490;BME280;44029;52.956;4.772;2023-03-05T00:28:18;102362.84;;;4.94;100.00
55490;BME280;44029;52.956;4.772;2023-03-05T00:30:43;102364.53;;;5.03;100.00
55490;BME280;44029;52.956;4.772;2023-03-05T00:33:10;102355.97;;;5.14;100.00
55490;BME280;44029;52.956;4.772;2023-03-05T00:35:44;102360.56;;;5.22;100.00
55490;BME280;44029;52.956;4.772;2023-03-05T00:38:10;102352.78;;;5.11;100.00
55490;BME280;44029;52.956;4.772;2023-03-05T00:40:37;102355.81;;;5.16;100.00
55490;BME280;44029;52.956;4.772;2023-03-05T00:43:03;102350.53;;;5.22;100.00
55490;BME280;44029;52.956;4.772;2023-03-05T00:45:29;102346.75;;;5.32;100.00
55490;BME280;44029;52.956;4.772;2023-03-05T00:47:54;102345.91;;;5.31;100.00
55490;BME280;44029;52.956;4.772;2023-03-05T00:50:19;102340.75;;;5.36;100.00
55490;BME280;44029;52.956;4.772;2023-03-05T00:52:45;102339.69;;;5.46;100.00
55490;BME280;44029;52.956;4.772;2023-03-05T00:55:10;102339.69;;;5.46;100.00
55490;BME280;44029;52.956;4.772;2023-03-05T00:57:35;102334.06;;;5.47;100.00
55490;BME280;44029;52.956;4.772;2023-03-05T01:00:01;102333.13;;;5.63;100.00
55490;BME280;44029;52.956;4.772;2023-03-05T01:02:26;102339.50;;;5.47;100.00
55490;BME280;44029;52.956;4.772;2023-03-05T01:04:51;102333.38;;;5.22;100.00
55490;BME280;44029;52.956;4.772;2023-03-05T01:07:17;102328.53;;;5.09;100.00
55490;BME280;44029;52.956;4.772;2023-03-05T01:09:42;102319.00;;;5.05;100.00
55490;BME280;44029;52.956;4.772;2023-03-05T01:12:08;102312.91;;;5.11;100.00
55490;BME280;44029;52.956;4.772;2023-03-05T01:14:33;102304.28;;;4.99;100.00
55490;BME280;44029;52.956;4.772;2023-03-05T01:17:00;102302.53;;;5.07;100.00
55490;BME280;44029;52.956;4.772;2023-03-05T01:19:25;102299.50;;;5.01;100.00
55490;BME280;44029;52.956;4.772;2023-03-05T01:21:50;102301.22;;;5.02;100.00
55490;BME280;44029;52.956;4.772;2023-03-05T01:24:16;102296.66;;;4.95;100.00
55490;BME280;44029;52.956;4.772;2023-03-05T01:26:41;102295.13;;;5.00;100.00
55490;BME280;44029;52.956;4.772;2023-03-05T01:29:06;102296.28;;;5.06;100.00
55490;BME280;44029;52.956;4.772;2023-03-05T01:31:32;102293.56;;;5.06;100.00
55490;BME280;44029;52.956;4.772;2023-03-05T01:33:57;102292.34;;;5.09;100.00
55490;BME280;44029;52.956;4.772;2023-03-05T01:36:24;102287.72;;;5.17;100.00
55490;BME280;44029;52.956;4.772;2023-03-05T01:38:50;102291.75;;;5.21;100.00
55490;BME280;44029;52.956;4.772;2023-03-05T01:41:16;102283.41;;;5.31;100.00
55490;BME280;44029;52.956;4.772;2023-03-05T01:43:43;102282.44;;;5.24;100.00
55490;BME280;44029;52.956;4.772;2023-03-05T01:51:26;102273.47;;;5.38;100.00
55490;BME280;44029;52.956;4.772;2023-03-05T01:53:55;102273.00;;;5.35;100.00
55490;BME280;44029;52.956;4.772;2023-03-05T01:56:23;102271.75;;;5.22;100.00
55490;BME280;44029;52.956;4.772;2023-03-05T01:58:50;102264.25;;;5.25;100.00
55490;BME280;44029;52.956;4.772;2023-03-05T02:01:16;102259.06;;;5.15;100.00
55490;BME280;44029;52.956;4.772;2023-03-05T02:03:44;102259.31;;;5.28;100.00
55490;BME280;44029;52.956;4.772;2023-03-05T02:06:10;102261.34;;;5.26;100.00
55490;BME280;44029;52.956;4.772;2023-03-05T02:08:35;102248.78;;;5.25;100.00
55490;BME280;44029;52.956;4.772;2023-03-05T02:11:01;102248.03;;;5.16;100.00
55490;BME280;44029;52.956;4.772;2023-03-05T02:13:33;102245.47;;;5.38;100.00
55490;BME280;44029;52.956;4.772;2023-03-05T02:16:00;102232.19;;;5.20;100.00
55490;BME280;44029;52.956;4.772;2023-03-05T02:18:26;102222.66;;;5.24;100.00
55490;BME280;44029;52.956;4.772;2023-03-05T02:23:22;102216.00;;;5.27;100.00
55490;BME280;44029;52.956;4.772;2023-03-05T02:25:48;102219.50;;;5.12;100.00
55490;BME280;44029;52.956;4.772;2023-03-05T02:28:18;102202.28;;;5.20;100.00
55490;BME280;44029;52.956;4.772;2023-03-05T02:30:47;102207.47;;;5.07;100.00
55490;BME280;44029;52.956;4.772;2023-03-05T02:33:14;102205.25;;;5.10;100.00
55490;BME280;44029;52.956;4.772;2023-03-05T02:35:40;102203.75;;;5.08;100.00
55490;BME280;44029;52.956;4.772;2023-03-05T02:38:08;102203.84;;;5.14;100.00
55490;BME280;44029;52.956;4.772;2023-03-05T02:40:33;102194.69;;;5.15;100.00
55490;BME280;44029;52.956;4.772;2023-03-05T02:42:59;102192.38;;;5.27;100.00
55490;BME280;44029;52.956;4.772;2023-03-05T02:45:24;102188.97;;;5.33;100.00
55490;BME280;44029;52.956;4.772;2023-03-05T02:47:49;102184.09;;;5.43;100.00
55490;BME280;44029;52.956;4.772;2023-03-05T02:50:15;102178.56;;;5.37;100.00
55490;BME280;44029;52.956;4.772;2023-03-05T02:52:40;102172.88;;;5.23;100.00
55490;BME280;44029;52.956;4.772;2023-03-05T02:55:06;102171.97;;;5.16;100.00
55490;BME280;44029;52.956;4.772;2023-03-05T02:57:31;102164.69;;;5.09;100.00
55490;BME280;44029;52.956;4.772;2023-03-05T02:59:57;102161.13;;;5.08;100.00
55490;BME280;44029;52.956;4.772;2023-03-05T03:02:22;102154.31;;;5.12;100.00
55490;BME280;44029;52.956;4.772;2023-03-05T03:04:47;102151.16;;;5.23;100.00
55490;BME280;44029;52.956;4.772;2023-03-05T03:07:14;102142.53;;;5.20;100.00
55490;BME280;44029;52.956;4.772;2023-03-05T03:09:39;102144.41;;;5.19;100.00
55490;BME280;44029;52.956;4.772;2023-03-05T03:12:07;102136.91;;;5.21;100.00
55490;BME280;44029;52.956;4.772;2023-03-05T03:14:34;102131.13;;;5.25;100.00
55490;BME280;44029;52.956;4.772;2023-03-05T03:17:13;102130.19;;;5.32;100.00
55490;BME280;44029;52.956;4.772;2023-03-05T03:19:40;102126.91;;;5.22;100.00
55490;BME280;44029;52.956;4.772;2023-03-05T03:22:07;102121.47;;;5.22;100.00
55490;BME280;44029;52.956;4.772;2023-03-05T03:24:36;102118.84;;;5.29;100.00
55490;BME280;44029;52.956;4.772;2023-03-05T03:27:01;102112.09;;;5.25;100.00
55490;BME280;44029;52.956;4.772;2023-03-05T03:29:27;102104.44;;;5.28;100.00
55490;BME280;44029;52.956;4.772;2023-03-05T03:31:53;102109.03;;;5.28;100.00
55490;BME280;44029;52.956;4.772;2023-03-05T03:34:19;102103.00;;;5.55;100.00
55490;BME280;44029;52.956;4.772;2023-03-05T03:36:46;102102.28;;;5.38;100.00
55490;BME280;44029;52.956;4.772;2023-03-05T03:39:12;102100.03;;;5.42;100.00
55490;BME280;44029;52.956;4.772;2023-03-05T03:41:47;102104.19;;;5.68;100.00
55490;BME280;44029;52.956;4.772;2023-03-05T03:44:12;102097.44;;;5.49;100.00
55490;BME280;44029;52.956;4.772;2023-03-05T03:46:39;102087.41;;;5.64;100.00
55490;BME280;44029;52.956;4.772;2023-03-05T03:49:06;102099.22;;;5.56;100.00
55490;BME280;44029;52.956;4.772;2023-03-05T03:51:32;102084.34;;;5.67;100.00
55490;BME280;44029;52.956;4.772;2023-03-05T03:53:58;102087.34;;;5.72;100.00
55490;BME280;44029;52.956;4.772;2023-03-05T03:56:23;102082.38;;;5.76;100.00
55490;BME280;44029;52.956;4.772;2023-03-05T03:58:50;102080.38;;;5.85;100.00
55490;BME280;44029;52.956;4.772;2023-03-05T04:01:16;102076.34;;;5.80;100.00
55490;BME280;44029;52.956;4.772;2023-03-05T04:03:42;102076.47;;;5.72;100.00
55490;BME280;44029;52.956;4.772;2023-03-05T04:06:07;102075.59;;;5.72;100.00
55490;BME280;44029;52.956;4.772;2023-03-05T04:08:33;102064.66;;;5.65;100.00
55490;BME280;44029;52.956;4.772;2023-03-05T04:11:00;102065.19;;;5.75;100.00
55490;BME280;44029;52.956;4.772;2023-03-05T04:13:25;102063.53;;;5.59;100.00
55490;BME280;44029;52.956;4.772;2023-03-05T04:15:51;102063.81;;;5.50;100.00
55490;BME280;44029;52.956;4.772;2023-03-05T04:18:16;102063.72;;;5.58;100.00
55490;BME280;44029;52.956;4.772;2023-03-05T04:20:42;102058.38;;;5.65;100.00
55490;BME280;44029;52.956;4.772;2023-03-05T04:23:07;102059.97;;;5.59;100.00
55490;BME280;44029;52.956;4.772;2023-03-05T04:25:33;102062.69;;;5.59;100.00
55490;BME280;44029;52.956;4.772;2023-03-05T04:27:59;102068.38;;;5.49;100.00
55490;BME280;44029;52.956;4.772;2023-03-05T04:30:24;102088.16;;;5.43;100.00
55490;BME280;44029;52.956;4.772;2023-03-05T04:32:49;102078.13;;;4.91;100.00
55490;BME280;44029;52.956;4.772;2023-03-05T04:35:15;102072.63;;;4.76;100.00
55490;BME280;44029;52.956;4.772;2023-03-05T04:37:40;102081.47;;;4.70;100.00
55490;BME280;44029;52.956;4.772;2023-03-05T04:40:06;102077.09;;;4.69;100.00
55490;BME280;44029;52.956;4.772;2023-03-05T04:42:31;102075.81;;;4.56;100.00
55490;BME280;44029;52.956;4.772;2023-03-05T04:44:57;102076.47;;;4.58;100.00
55490;BME280;44029;52.956;4.772;2023-03-05T04:47:22;102079.66;;;4.62;100.00
55490;BME280;44029;52.956;4.772;2023-03-05T04:49:48;102078.28;;;4.66;100.00
55490;BME280;44029;52.956;4.772;2023-03-05T04:52:13;102061.56;;;4.77;100.00
55490;BME280;44029;52.956;4.772;2023-03-05T04:54:39;102058.31;;;4.82;100.00
55490;BME280;44029;52.956;4.772;2023-03-05T04:57:04;102059.28;;;4.89;100.00
55490;BME280;44029;52.956;4.772;2023-03-05T04:59:30;102053.03;;;4.89;100.00
55490;BME280;44029;52.956;4.772;2023-03-05T05:01:56;102046.38;;;4.91;100.00
55490;BME280;44029;52.956;4.772;2023-03-05T05:04:21;102047.59;;;4.89;100.00
55490;BME280;44029;52.956;4.772;2023-03-05T05:06:47;102043.59;;;4.76;100.00
55490;BME280;44029;52.956;4.772;2023-03-05T05:09:12;102049.50;;;4.80;100.00
55490;BME280;44029;52.956;4.772;2023-03-05T05:11:38;102045.31;;;4.92;100.00
55490;BME280;44029;52.956;4.772;2023-03-05T05:14:04;102043.16;;;4.88;100.00
55490;BME280;44029;52.956;4.772;2023-03-05T05:16:29;102042.03;;;4.82;100.00
55490;BME280;44029;52.956;4.772;2023-03-05T05:18:55;102040.94;;;4.91;100.00
55490;BME280;44029;52.956;4.772;2023-03-05T05:21:20;102031.22;;;4.97;100.00
55490;BME280;44029;52.956;4.772;2023-03-05T05:23:46;102030.84;;;5.00;100.00
55490;BME280;44029;52.956;4.772;2023-03-05T05:26:12;102027.69;;;5.11;100.00
55490;BME280;44029;52.956;4.772;2023-03-05T05:28:38;102021.97;;;5.21;100.00
55490;BME280;44029;52.956;4.772;2023-03-05T05:31:07;102021.03;;;5.29;100.00
55490;BME280;44029;52.956;4.772;2023-03-05T05:33:33;102044.53;;;5.07;100.00
55490;BME280;44029;52.956;4.772;2023-03-05T05:35:58;102044.28;;;4.55;100.00
55490;BME280;44029;52.956;4.772;2023-03-05T05:38:24;102047.31;;;4.29;100.00
55490;BME280;44029;52.956;4.772;2023-03-05T05:40:49;102048.38;;;4.20;100.00
55490;BME280;44029;52.956;4.772;2023-03-05T05:43:14;102048.47;;;4.03;100.00
55490;BME280;44029;52.956;4.772;2023-03-05T05:45:40;102042.47;;;4.16;100.00
55490;BME280;44029;52.956;4.772;2023-03-05T05:48:05;102037.13;;;4.31;100.00
55490;BME280;44029;52.956;4.772;2023-03-05T05:50:31;102027.81;;;4.34;100.00
55490;BME280;44029;52.956;4.772;2023-03-05T05:52:56;102036.94;;;4.33;100.00
55490;BME280;44029;52.956;4.772;2023-03-05T05:55:21;102029.84;;;4.32;100.00
55490;BME280;44029;52.956;4.772;2023-03-05T05:57:47;102030.69;;;4.32;100.00
55490;BME280;44029;52.956;4.772;2023-03-05T06:00:13;102023.22;;;4.34;100.00
55490;BME280;44029;52.956;4.772;2023-03-05T06:02:42;102024.19;;;4.41;100.00
55490;BME280;44029;52.956;4.772;2023-03-05T06:05:10;102021.22;;;4.51;100.00
55490;BME280;44029;52.956;4.772;2023-03-05T06:07:36;102017.06;;;4.40;100.00
55490;BME280;44029;52.956;4.772;2023-03-05T06:10:02;102021.78;;;4.47;100.00
55490;BME280;44029;52.956;4.772;2023-03-05T06:12:28;102016.41;;;4.38;100.00
55490;BME280;44029;52.956;4.772;2023-03-05T06:14:53;102012.97;;;4.44;100.00
55490;BME280;44029;52.956;4.772;2023-03-05T06:17:19;102006.69;;;4.44;100.00
55490;BME280;44029;52.956;4.772;2023-03-05T06:19:44;102005.31;;;4.48;100.00
55490;BME280;44029;52.956;4.772;2023-03-05T06:22:10;102005.44;;;4.55;100.00
55490;BME280;44029;52.956;4.772;2023-03-05T06:24:36;102001.81;;;4.62;100.00
55490;BME280;44029;52.956;4.772;2023-03-05T06:27:02;102012.44;;;4.72;100.00
55490;BME280;44029;52.956;4.772;2023-03-05T06:29:28;102003.19;;;4.58;100.00
55490;BME280;44029;52.956;4.772;2023-03-05T06:31:53;102004.72;;;4.61;100.00
55490;BME280;44029;52.956;4.772;2023-03-05T06:34:18;102006.03;;;4.65;100.00
55490;BME280;44029;52.956;4.772;2023-03-05T06:36:44;102004.50;;;4.62;100.00
55490;BME280;44029;52.956;4.772;2023-03-05T06:39:09;102007.78;;;4.58;100.00
55490;BME280;44029;52.956;4.772;2023-03-05T06:41:34;102002.00;;;4.61;100.00
55490;BME280;44029;52.956;4.772;2023-03-05T06:44:01;101999.38;;;4.68;100.00
55490;BME280;44029;52.956;4.772;2023-03-05T06:46:29;102010.66;;;4.79;100.00
55490;BME280;44029;52.956;4.772;2023-03-05T06:48:56;101998.84;;;4.72;100.00
55490;BME280;44029;52.956;4.772;2023-03-05T06:53:52;101997.38;;;4.84;100.00
55490;BME280;44029;52.956;4.772;2023-03-05T06:56:18;102000.97;;;5.00;100.00
55490;BME280;44029;52.956;4.772;2023-03-05T06:58:45;102003.31;;;5.03;100.00
55490;BME280;44029;52.956;4.772;2023-03-05T07:01:12;101987.41;;;5.15;100.00
55490;BME280;44029;52.956;4.772;2023-03-05T07:03:38;101981.03;;;5.22;100.00
55490;BME280;44029;52.956;4.772;2023-03-05T07:06:06;101992.28;;;5.49;100.00
55490;BME280;44029;52.956;4.772;2023-03-05T07:08:32;101980.94;;;5.46;100.00
55490;BME280;44029;52.956;4.772;2023-03-05T07:10:57;101974.84;;;5.58;100.00
55490;BME280;44029;52.956;4.772;2023-03-05T07:13:23;101973.41;;;5.62;100.00
55490;BME280;44029;52.956;4.772;2023-03-05T07:15:48;101974.84;;;5.58;100.00
55490;BME280;44029;52.956;4.772;2023-03-05T07:18:14;101962.28;;;5.57;100.00
55490;BME280;44029;52.956;4.772;2023-03-05T07:20:39;101982.53;;;5.40;100.00
55490;BME280;44029;52.956;4.772;2023-03-05T07:23:04;101975.91;;;5.28;100.00
55490;BME280;44029;52.956;4.772;2023-03-05T07:25:30;101975.03;;;5.27;100.00
55490;BME280;44029;52.956;4.772;2023-03-05T07:27:56;101976.72;;;5.43;100.00
55490;BME280;44029;52.956;4.772;2023-03-05T07:30:21;101978.84;;;5.62;100.00
55490;BME280;44029;52.956;4.772;2023-03-05T07:32:47;101970.16;;;5.52;100.00
55490;BME280;44029;52.956;4.772;2023-03-05T07:35:12;101964.13;;;5.72;100.00
55490;BME280;44029;52.956;4.772;2023-03-05T07:37:38;101961.63;;;6.07;100.00
55490;BME280;44029;52.956;4.772;2023-03-05T07:40:04;101954.88;;;6.89;100.00
55490;BME280;44029;52.956;4.772;2023-03-05T07:42:30;101947.34;;;6.97;100.00
55490;BME280;44029;52.956;4.772;2023-03-05T07:44:56;101945.25;;;6.93;100.00
55490;BME280;44029;52.956;4.772;2023-03-05T07:47:21;101944.94;;;7.09;100.00
55490;BME280;44029;52.956;4.772;2023-03-05T07:49:50;101949.44;;;7.24;100.00
55490;BME280;44029;52.956;4.772;2023-03-05T07:52:15;101945.44;;;7.61;100.00
55490;BME280;44029;52.956;4.772;2023-03-05T07:54:41;101948.38;;;7.66;100.00
55490;BME280;44029;52.956;4.772;2023-03-05T07:57:07;101942.94;;;7.66;100.00
55490;BME280;44029;52.956;4.772;2023-03-05T07:59:33;101937.84;;;7.57;100.00
55490;BME280;44029;52.956;4.772;2023-03-05T08:01:58;101940.25;;;7.31;100.00
55490;BME280;44029;52.956;4.772;2023-03-05T08:04:24;101941.41;;;7.15;100.00
55490;BME280;44029;52.956;4.772;2023-03-05T08:06:49;101935.56;;;7.19;100.00
55490;BME280;44029;52.956;4.772;2023-03-05T08:09:16;101935.13;;;7.22;100.00
55490;BME280;44029;52.956;4.772;2023-03-05T08:11:42;101932.47;;;7.28;100.00
55490;BME280;44029;52.956;4.772;2023-03-05T08:14:08;101934.03;;;7.44;100.00
55490;BME280;44029;52.956;4.772;2023-03-05T08:16:33;101926.50;;;7.11;100.00
55490;BME280;44029;52.956;4.772;2023-03-05T08:18:59;101926.19;;;7.28;100.00
55490;BME280;44029;52.956;4.772;2023-03-05T08:21:30;101929.22;;;7.53;100.00
55490;BME280;44029;52.956;4.772;2023-03-05T08:23:58;101930.75;;;7.69;100.00
55490;BME280;44029;52.956;4.772;2023-03-05T08:26:26;101928.47;;;7.72;100.00
55490;BME280;44029;52.956;4.772;2023-03-05T08:28:52;101925.34;;;7.76;100.00
55490;BME280;44029;52.956;4.772;2023-03-05T08:31:20;101923.09;;;7.92;100.00
55490;BME280;44029;52.956;4.772;2023-03-05T08:33:47;101920.72;;;7.83;100.00
55490;BME280;44029;52.956;4.772;2023-03-05T08:36:12;101922.03;;;8.07;100.00
55490;BME280;44029;52.956;4.772;2023-03-05T08:38:38;101922.28;;;8.25;100.00
55490;BME280;44029;52.956;4.772;2023-03-05T08:41:04;101922.66;;;7.96;100.00
55490;BME280;44029;52.956;4.772;2023-03-05T08:43:29;101928.22;;;7.61;100.00
55490;BME280;44029;52.956;4.772;2023-03-05T08:45:56;101920.97;;;7.81;100.00
55490;BME280;44029;52.956;4.772;2023-03-05T08:48:21;101921.22;;;8.06;100.00
55490;BME280;44029;52.956;4.772;2023-03-05T08:50:46;101914.59;;;8.42;100.00
55490;BME280;44029;52.956;4.772;2023-03-05T08:53:13;101918.66;;;7.91;100.00
55490;BME280;44029;52.956;4.772;2023-03-05T08:55:38;101918.22;;;7.81;100.00
55490;BME280;44029;52.956;4.772;2023-03-05T08:58:04;101922.38;;;7.70;100.00
55490;BME280;44029;52.956;4.772;2023-03-05T09:00:29;101915.91;;;7.78;100.00
55490;BME280;44029;52.956;4.772;2023-03-05T09:02:54;101917.09;;;7.62;100.00
55490;BME280;44029;52.956;4.772;2023-03-05T09:05:20;101917.22;;;7.41;100.00
55490;BME280;44029;52.956;4.772;2023-03-05T09:07:45;101909.66;;;7.36;100.00
55490;BME280;44029;52.956;4.772;2023-03-05T09:10:11;101912.66;;;7.54;100.00
55490;BME280;44029;52.956;4.772;2023-03-05T09:12:41;101920.88;;;7.68;100.00
55490;BME280;44029;52.956;4.772;2023-03-05T09:15:08;101912.97;;;7.80;100.00
55490;BME280;44029;52.956;4.772;2023-03-05T09:17:35;101911.88;;;7.61;100.00
55490;BME280;44029;52.956;4.772;2023-03-05T09:20:01;101909.78;;;7.63;100.00
55490;BME280;44029;52.956;4.772;2023-03-05T09:22:27;101909.06;;;7.41;100.00
55490;BME280;44029;52.956;4.772;2023-03-05T09:24:53;101906.97;;;7.43;100.00
55490;BME280;44029;52.956;4.772;2023-03-05T09:27:18;101908.03;;;7.48;100.00
55490;BME280;44029;52.956;4.772;2023-03-05T09:29:43;101900.28;;;7.52;100.00
55490;BME280;44029;52.956;4.772;2023-03-05T09:32:09;101898.88;;;7.63;100.00
55490;BME280;44029;52.956;4.772;2023-03-05T09:34:34;101892.78;;;7.67;100.00
55490;BME280;44029;52.956;4.772;2023-03-05T09:37:00;101892.59;;;7.69;100.00
55490;BME280;44029;52.956;4.772;2023-03-05T09:39:26;101884.16;;;7.64;100.00
55490;BME280;44029;52.956;4.772;2023-03-05T09:47:38;101888.84;;;7.90;100.00
55490;BME280;44029;52.956;4.772;2023-03-05T09:50:35;101881.75;;;8.09;100.00
55490;BME280;44029;52.956;4.772;2023-03-05T09:53:13;101874.16;;;7.98;100.00
55490;BME280;44029;52.956;4.772;2023-03-05T09:55:45;101866.66;;;8.13;100.00
55490;BME280;44029;52.956;4.772;2023-03-05T09:58:19;101865.59;;;8.21;100.00
55490;BME280;44029;52.956;4.772;2023-03-05T10:00:49;101856.53;;;7.87;100.00
55490;BME280;44029;52.956;4.772;2023-03-05T10:06:12;101862.44;;;8.04;100.00
55490;BME280;44029;52.956;4.772;2023-03-05T10:09:06;101865.38;;;8.16;100.00
55490;BME280;44029;52.956;4.772;2023-03-05T10:13:59;101859.91;;;7.96;100.00
55490;BME280;44029;52.956;4.772;2023-03-05T10:19:11;101856.53;;;7.93;100.00
55490;BME280;44029;52.956;4.772;2023-03-05T10:21:49;101854.00;;;7.79;100.00
55490;BME280;44029;52.956;4.772;2023-03-05T10:24:25;101851.69;;;7.82;100.00
55490;BME280;44029;52.956;4.772;2023-03-05T10:29:35;101846.47;;;7.87;100.00
55490;BME280;44029;52.956;4.772;2023-03-05T10:32:34;101838.91;;;7.89;100.00
55490;BME280;44029;52.956;4.772;2023-03-05T10:45:35;101819.81;;;8.36;100.00
55490;BME280;44029;52.956;4.772;2023-03-05T10:50:43;101808.09;;;8.09;100.00
55490;BME280;44029;52.956;4.772;2023-03-05T10:55:48;101801.97;;;8.47;100.00
55490;BME280;44029;52.956;4.772;2023-03-05T10:58:16;101799.00;;;8.68;100.00
55490;BME280;44029;52.956;4.772;2023-03-05T11:03:55;101792.50;;;8.56;100.00
55490;BME280;44029;52.956;4.772;2023-03-05T11:06:31;101790.44;;;8.45;100.00
55490;BME280;44029;52.956;4.772;2023-03-05T11:14:28;101788.97;;;8.22;100.00
55490;BME280;44029;52.956;4.772;2023-03-05T11:16:57;101784.75;;;8.46;100.00
55490;BME280;44029;52.956;4.772;2023-03-05T11:19:30;101776.78;;;8.45;100.00
55490;BME280;44029;52.956;4.772;2023-03-05T11:24:35;101770.06;;;8.14;100.00
55490;BME280;44029;52.956;4.772;2023-03-05T11:27:00;101766.50;;;8.07;100.00
55490;BME280;44029;52.956;4.772;2023-03-05T11:29:29;101757.91;;;8.03;100.00
55490;BME280;44029;52.956;4.772;2023-03-05T11:31:55;101754.13;;;7.91;100.00
55490;BME280;44029;52.956;4.772;2023-03-05T11:34:38;101750.78;;;8.09;100.00
55490;BME280;44029;52.956;4.772;2023-03-05T11:37:04;101748.66;;;8.24;100.00
55490;BME280;44029;52.956;4.772;2023-03-05T11:39:32;101747.56;;;8.45;100.00
55490;BME280;44029;52.956;4.772;2023-03-05T11:42:06;101746.56;;;8.92;100.00
55490;BME280;44029;52.956;4.772;2023-03-05T11:44:54;101742.72;;;8.61;100.00
55490;BME280;44029;52.956;4.772;2023-03-05T11:50:01;101724.72;;;8.13;100.00
55490;BME280;44029;52.956;4.772;2023-03-05T11:52:29;101724.50;;;8.21;100.00
55490;BME280;44029;52.956;4.772;2023-03-05T11:57:22;101712.50;;;8.36;100.00
55490;BME280;44029;52.956;4.772;2023-03-05T11:59:49;101712.31;;;8.10;100.00
55490;BME280;44029;52.956;4.772;2023-03-05T12:02:22;101713.63;;;7.88;100.00
55490;BME280;44029;52.956;4.772;2023-03-05T12:04:49;101708.38;;;7.86;100.00
55490;BME280;44029;52.956;4.772;2023-03-05T12:07:21;101706.25;;;8.08;100.00
55490;BME280;44029;52.956;4.772;2023-03-05T12:09:50;101706.28;;;7.88;100.00
55490;BME280;44029;52.956;4.772;2023-03-05T12:23:11;101688.97;;;8.48;100.00
55490;BME280;44029;52.956;4.772;2023-03-05T12:25:54;101683.31;;;8.43;100.00
55490;BME280;44029;52.956;4.772;2023-03-05T12:30:59;101673.78;;;8.65;100.00
55490;BME280;44029;52.956;4.772;2023-03-05T12:33:35;101662.31;;;8.88;100.00
55490;BME280;44029;52.956;4.772;2023-03-05T12:38:41;101659.75;;;8.55;100.00
55490;BME280;44029;52.956;4.772;2023-03-05T12:44:08;101658.13;;;8.86;100.00
55490;BME280;44029;52.956;4.772;2023-03-05T12:46:35;101655.47;;;8.66;100.00
55490;BME280;44029;52.956;4.772;2023-03-05T12:51:53;101645.03;;;8.95;100.00
55490;BME280;44029;52.956;4.772;2023-03-05T12:54:36;101644.91;;;8.83;100.00
55490;BME280;44029;52.956;4.772;2023-03-05T12:57:22;101637.59;;;9.08;100.00
55490;BME280;44029;52.956;4.772;2023-03-05T12:59:53;101636.63;;;8.96;100.00
55490;BME280;44029;52.956;4.772;2023-03-05T13:02:30;101622.69;;;9.04;100.00
55490;BME280;44029;52.956;4.772;2023-03-05T13:05:00;101620.63;;;9.00;100.00
55490;BME280;44029;52.956;4.772;2023-03-05T13:07:26;101615.53;;;8.71;100.00
55490;BME280;44029;52.956;4.772;2023-03-05T13:09:54;101620.97;;;8.78;100.00
55490;BME280;44029;52.956;4.772;2023-03-05T13:12:21;101616.59;;;8.70;100.00
55490;BME280;44029;52.956;4.772;2023-03-05T13:15:03;101607.78;;;8.68;100.00
55490;BME280;44029;52.956;4.772;2023-03-05T13:17:34;101603.59;;;8.66;100.00
55490;BME280;44029;52.956;4.772;2023-03-05T13:23:12;101609.38;;;9.15;100.00
55490;BME280;44029;52.956;4.772;2023-03-05T13:25:43;101599.94;;;8.79;100.00
55490;BME280;44029;52.956;4.772;2023-03-05T13:28:12;101597.50;;;8.64;100.00
55490;BME280;44029;52.956;4.772;2023-03-05T13:30:38;101602.16;;;8.57;100.00
55490;BME280;44029;52.956;4.772;2023-03-05T13:33:16;101597.22;;;8.79;100.00
55490;BME280;44029;52.956;4.772;2023-03-05T13:35:45;101591.75;;;8.79;100.00
55490;BME280;44029;52.956;4.772;2023-03-05T13:38:27;101590.41;;;8.88;100.00
55490;BME280;44029;52.956;4.772;2023-03-05T13:41:16;101583.25;;;8.94;100.00
55490;BME280;44029;52.956;4.772;2023-03-05T13:43:46;101585.66;;;8.77;100.00
55490;BME280;44029;52.956;4.772;2023-03-05T13:46:12;101575.88;;;8.62;100.00
55490;BME280;44029;52.956;4.772;2023-03-05T13:48:37;101581.31;;;8.62;100.00
55490;BME280;44029;52.956;4.772;2023-03-05T13:51:03;101575.53;;;8.52;100.00
55490;BME280;44029;52.956;4.772;2023-03-05T13:53:33;101579.88;;;8.60;100.00
55490;BME280;44029;52.956;4.772;2023-03-05T13:56:04;101571.34;;;8.81;100.00
55490;BME280;44029;52.956;4.772;2023-03-05T14:04:02;101560.81;;;8.85;100.00
55490;BME280;44029;52.956;4.772;2023-03-05T14:06:30;101561.03;;;8.83;100.00
55490;BME280;44029;52.956;4.772;2023-03-05T14:09:41;101552.06;;;8.76;100.00
55490;BME280;44029;52.956;4.772;2023-03-05T14:14:17;101557.25;;;8.52;100.00
55490;BME280;44029;52.956;4.772;2023-03-05T14:16:44;101553.81;;;8.64;100.00
55490;BME280;44029;52.956;4.772;2023-03-05T14:19:30;101543.06;;;8.69;100.00
55490;BME280;44029;52.956;4.772;2023-03-05T14:21:56;101551.84;;;8.46;100.00
55490;BME280;44029;52.956;4.772;2023-03-05T14:24:24;101546.72;;;8.56;100.00